Time;durP1;ratioP1;P1;durP2;ratioP2;P2;SDS_P1;SDS_P2;PMS_P1;PMS_P2;Temp;Humidity;BMP_temperature;BMP_pressure;BME280_temperature;BME280_humidity;BME280_pressure;Samples;Min_cycle;Max_cycle;Signal;HPM_P1;HPM_P2
2023/01/20 00:01:45;;;;;;;19.08;14.07;;;2.70;99.90;;;;;;5043680;28;20275;-76
2023/01/20 00:04:30;;;;;;;18.75;12.60;;;2.70;99.90;;;;;;5045591;28;20212;-75
2023/01/20 00:07:16;;;;;;;15.27;11.07;;;2.60;99.90;;;;;;5046732;28;20221;-77
2023/01/20 00:10:02;;;;;;;20.25;13.20;;;2.60;99.90;;;;;;5044609;28;20204;-76
2023/01/20 00:12:48;;;;;;;18.13;12.98;;;2.50;99.90;;;;;;5037426;28;20217;-77
2023/01/20 00:15:35;;;;;;;18.27;12.88;;;2.50;99.90;;;;;;5045101;28;20209;-77
2023/01/20 00:18:20;;;;;;;17.92;13.93;;;2.60;99.90;;;;;;5042878;28;20201;-77
2023/01/20 00:21:08;;;;;;;18.40;13.27;;;2.70;99.90;;;;;;5037423;28;20204;-76
2023/01/20 00:23:54;;;;;;;17.25;12.40;;;2.70;99.90;;;;;;5046803;28;20197;-76
2023/01/20 00:26:40;;;;;;;19.85;13.98;;;2.70;99.90;;;;;;5053336;28;20216;-76
2023/01/20 00:29:27;;;;;;;18.63;12.75;;;2.80;99.90;;;;;;5044881;28;20573;-76
2023/01/20 00:32:13;;;;;;;20.60;12.55;;;2.80;99.90;;;;;;5040408;28;20752;-76
2023/01/20 00:34:58;;;;;;;16.90;11.88;;;2.80;99.90;;;;;;5054651;28;20339;-76
2023/01/20 00:37:44;;;;;;;17.45;12.80;;;2.90;99.90;;;;;;5048878;28;20264;-76
2023/01/20 00:40:29;;;;;;;15.40;11.77;;;2.80;99.90;;;;;;5046636;28;20213;-77
2023/01/20 00:43:15;;;;;;;15.15;12.52;;;2.80;99.90;;;;;;5049700;28;20570;-77
2023/01/20 00:46:02;;;;;;;19.13;11.68;;;2.70;99.90;;;;;;5048667;28;20309;-76
2023/01/20 00:48:48;;;;;;;20.33;13.20;;;2.60;99.90;;;;;;5051775;28;20209;-77
2023/01/20 00:51:33;;;;;;;19.95;12.95;;;2.60;99.90;;;;;;5043114;28;20667;-76
2023/01/20 00:54:19;;;;;;;17.67;12.70;;;2.60;99.90;;;;;;5050349;28;20269;-76
2023/01/20 00:57:04;;;;;;;18.23;12.73;;;2.60;99.90;;;;;;5041824;28;21063;-76
2023/01/20 00:59:50;;;;;;;21.92;13.60;;;2.50;99.90;;;;;;5040385;28;20275;-76
2023/01/20 01:02:39;;;;;;;18.05;13.07;;;2.40;99.90;;;;;;5047011;28;20201;-76
2023/01/20 01:05:25;;;;;;;22.45;14.52;;;2.30;99.90;;;;;;5049179;28;20197;-76
2023/01/20 01:08:11;;;;;;;19.95;13.88;;;2.40;99.90;;;;;;5048503;28;20342;-76
2023/01/20 01:10:57;;;;;;;21.60;15.07;;;2.50;99.90;;;;;;5044814;28;20773;-76
2023/01/20 01:13:43;;;;;;;22.25;15.73;;;2.50;99.90;;;;;;5047284;28;20302;-76
2023/01/20 01:16:28;;;;;;;22.15;15.48;;;2.50;99.90;;;;;;5048740;28;20621;-77
2023/01/20 01:19:17;;;;;;;21.58;15.25;;;2.50;99.90;;;;;;5053335;28;20574;-77
2023/01/20 01:22:03;;;;;;;24.25;15.80;;;2.50;99.90;;;;;;5046072;28;20220;-76
2023/01/20 01:24:49;;;;;;;27.45;15.10;;;2.60;99.90;;;;;;5046401;28;20212;-76
2023/01/20 01:27:34;;;;;;;23.98;14.55;;;2.60;99.90;;;;;;5045616;28;20229;-77
2023/01/20 01:30:20;;;;;;;25.58;14.57;;;2.60;99.90;;;;;;5046591;28;20230;-77
2023/01/20 01:33:06;;;;;;;27.67;16.30;;;2.60;99.90;;;;;;5048960;28;20220;-76
2023/01/20 01:35:56;;;;;;;25.23;16.70;;;2.60;99.90;;;;;;5050559;28;20243;-76
2023/01/20 01:38:43;;;;;;;28.70;16.42;;;2.60;99.90;;;;;;5049127;28;20694;-76
2023/01/20 01:41:28;;;;;;;22.30;14.60;;;2.70;99.90;;;;;;5043672;28;20328;-77
2023/01/20 01:44:15;;;;;;;23.52;15.10;;;2.80;99.90;;;;;;5041174;28;20200;-76
2023/01/20 01:47:00;;;;;;;20.95;13.48;;;2.80;99.90;;;;;;5049160;28;20274;-76
2023/01/20 01:49:46;;;;;;;24.85;14.07;;;2.70;99.90;;;;;;5044176;28;20999;-76
2023/01/20 01:52:33;;;;;;;20.55;13.80;;;2.60;99.90;;;;;;5054929;28;20720;-76
2023/01/20 01:55:21;;;;;;;22.65;13.88;;;2.60;99.90;;;;;;5046117;28;20380;-76
2023/01/20 01:58:11;;;;;;;20.25;13.00;;;2.60;99.90;;;;;;5057661;28;20310;-76
2023/01/20 02:00:57;;;;;;;24.67;15.65;;;2.60;99.90;;;;;;5041124;28;20212;-76
2023/01/20 02:03:48;;;;;;;25.38;14.75;;;2.60;99.90;;;;;;5053219;28;20291;-76
2023/01/20 02:06:35;;;;;;;20.83;14.57;;;2.70;99.90;;;;;;5044714;28;20240;-76
2023/01/20 02:09:24;;;;;;;25.42;15.02;;;2.70;99.90;;;;;;5043915;28;20271;-77
2023/01/20 02:12:13;;;;;;;27.10;17.50;;;2.70;99.90;;;;;;5048555;28;20699;-76
2023/01/20 02:15:01;;;;;;;26.05;15.40;;;2.60;99.90;;;;;;5045923;28;20566;-77
2023/01/20 02:18:02;;;;;;;21.17;15.45;;;2.50;99.90;;;;;;5048227;28;20307;-76
2023/01/20 02:21:17;;;;;;;23.15;15.40;;;2.40;99.90;;;;;;5046317;28;20268;-76
2023/01/20 02:24:30;;;;;;;25.38;16.52;;;2.40;99.90;;;;;;5047754;28;20208;-78
2023/01/20 02:27:23;;;;;;;27.17;17.63;;;2.40;99.90;;;;;;5047780;28;20229;-76
2023/01/20 02:30:41;;;;;;;26.65;17.73;;;2.50;99.90;;;;;;5043869;28;20287;-77
2023/01/20 02:33:31;;;;;;;28.55;18.58;;;2.50;99.90;;;;;;5059341;28;20224;-76
2023/01/20 02:36:26;;;;;;;29.00;17.92;;;2.50;99.90;;;;;;5050958;28;20355;-77
2023/01/20 02:39:16;;;;;;;30.50;19.13;;;2.60;99.90;;;;;;5046086;28;20212;-77
2023/01/20 02:42:08;;;;;;;24.90;17.15;;;2.50;99.90;;;;;;5047510;28;20665;-77
2023/01/20 02:44:59;;;;;;;22.33;15.30;;;2.50;99.90;;;;;;5047051;28;20264;-76
2023/01/20 02:47:52;;;;;;;22.75;15.55;;;2.50;99.90;;;;;;5046217;28;20235;-76
2023/01/20 02:50:43;;;;;;;26.38;15.77;;;2.50;99.90;;;;;;5044808;28;22308;-77
2023/01/20 02:53:33;;;;;;;23.55;16.85;;;2.60;99.90;;;;;;5040384;28;20228;-76
2023/01/20 02:56:20;;;;;;;28.70;19.15;;;2.60;99.90;;;;;;5040445;28;20320;-76
2023/01/20 02:59:10;;;;;;;26.25;16.80;;;2.60;99.90;;;;;;5041415;28;20333;-76
2023/01/20 03:02:01;;;;;;;20.45;15.38;;;2.50;99.90;;;;;;5047024;28;20205;-77
2023/01/20 03:04:51;;;;;;;23.88;16.23;;;2.40;99.90;;;;;;5044342;28;20212;-76
2023/01/20 03:07:41;;;;;;;20.88;14.00;;;2.50;99.90;;;;;;5044436;28;20610;-76
2023/01/20 03:10:30;;;;;;;22.30;14.50;;;2.40;99.90;;;;;;5043762;28;20284;-76
2023/01/20 03:13:23;;;;;;;22.63;15.02;;;2.30;99.90;;;;;;5046936;28;20716;-77
2023/01/20 03:16:12;;;;;;;24.25;17.23;;;2.40;99.90;;;;;;5042053;28;20563;-76
2023/01/20 03:18:58;;;;;;;24.95;16.80;;;2.40;99.90;;;;;;5041863;28;22161;-76
2023/01/20 03:21:44;;;;;;;19.00;15.30;;;2.50;99.90;;;;;;5056065;28;20201;-77
2023/01/20 03:24:33;;;;;;;27.00;18.15;;;2.50;99.90;;;;;;5050501;28;20782;-76
2023/01/20 03:27:18;;;;;;;22.95;16.75;;;2.50;99.90;;;;;;5060132;28;20362;-76
2023/01/20 03:30:11;;;;;;;28.40;17.77;;;2.50;99.90;;;;;;5042601;28;20214;-76
2023/01/20 03:32:57;;;;;;;24.17;16.55;;;2.60;99.90;;;;;;5046959;28;20225;-76
2023/01/20 03:35:43;;;;;;;22.83;15.70;;;2.50;99.90;;;;;;5046552;28;20785;-77
2023/01/20 03:38:29;;;;;;;19.38;13.95;;;2.40;99.90;;;;;;5041176;28;20303;-76
2023/01/20 03:41:25;;;;;;;21.90;14.32;;;2.30;99.90;;;;;;5051459;28;20673;-76
2023/01/20 03:44:16;;;;;;;22.67;16.27;;;2.40;99.90;;;;;;5044013;28;20239;-76
2023/01/20 03:47:10;;;;;;;24.70;16.08;;;2.50;99.90;;;;;;5046902;28;20583;-76
2023/01/20 03:50:06;;;;;;;23.80;14.80;;;2.50;99.90;;;;;;5040831;28;20200;-76
2023/01/20 03:52:55;;;;;;;20.20;14.75;;;2.60;99.90;;;;;;5043614;28;20228;-76
2023/01/20 03:55:46;;;;;;;20.58;15.05;;;2.60;99.90;;;;;;5046754;28;20308;-76
2023/01/20 03:58:36;;;;;;;20.10;15.23;;;2.70;99.90;;;;;;5037863;28;20559;-76
2023/01/20 04:01:26;;;;;;;20.10;15.48;;;2.50;99.90;;;;;;5043992;28;20656;-77
2023/01/20 04:04:16;;;;;;;23.45;16.27;;;2.30;99.90;;;;;;5040880;28;20197;-76
2023/01/20 04:07:04;;;;;;;21.80;15.95;;;2.40;99.90;;;;;;5042171;28;20267;-77
2023/01/20 04:09:53;;;;;;;26.23;15.32;;;2.20;99.90;;;;;;5044984;28;20260;-76
2023/01/20 04:12:38;;;;;;;21.05;14.55;;;2.20;99.90;;;;;;5049044;28;20794;-77
2023/01/20 04:15:28;;;;;;;20.17;15.07;;;2.20;99.90;;;;;;5046903;28;20205;-77
2023/01/20 04:18:16;;;;;;;20.65;15.18;;;2.20;99.90;;;;;;5042597;28;20233;-77
2023/01/20 04:21:03;;;;;;;20.42;14.35;;;2.30;99.90;;;;;;5049508;28;20324;-77
2023/01/20 04:23:55;;;;;;;20.65;15.13;;;2.40;99.90;;;;;;5050932;28;20208;-77
2023/01/20 04:26:41;;;;;;;20.38;14.93;;;2.40;99.90;;;;;;5049510;28;20224;-77
2023/01/20 04:29:27;;;;;;;20.00;14.55;;;2.20;99.90;;;;;;5050389;28;20246;-76
2023/01/20 04:32:14;;;;;;;18.58;15.45;;;2.20;99.90;;;;;;5051332;28;20200;-77
2023/01/20 04:34:59;;;;;;;20.23;15.15;;;2.00;99.90;;;;;;5046259;28;20217;-76
2023/01/20 04:37:45;;;;;;;19.83;15.35;;;2.00;99.90;;;;;;5038340;28;20236;-77
2023/01/20 04:40:31;;;;;;;23.10;14.45;;;1.80;99.90;;;;;;5057161;28;20204;-77
2023/01/20 04:43:17;;;;;;;25.38;16.55;;;1.70;99.90;;;;;;5047954;28;20324;-77
2023/01/20 04:46:02;;;;;;;20.55;15.82;;;1.70;99.90;;;;;;5042308;28;20205;-76
2023/01/20 04:48:50;;;;;;;19.67;15.18;;;1.70;99.90;;;;;;5044980;28;20212;-77
2023/01/20 04:51:35;;;;;;;20.58;14.25;;;1.60;99.90;;;;;;5049842;28;20315;-76
2023/01/20 04:54:21;;;;;;;17.83;14.32;;;1.50;99.90;;;;;;5054382;28;20224;-77
2023/01/20 04:57:06;;;;;;;21.60;16.02;;;1.40;99.90;;;;;;5042030;28;20330;-76
2023/01/20 04:59:52;;;;;;;21.02;15.32;;;1.30;99.90;;;;;;5052634;28;20221;-77
2023/01/20 05:02:37;;;;;;;20.63;15.45;;;1.30;99.90;;;;;;5048232;28;20204;-76
2023/01/20 05:05:25;;;;;;;19.40;13.93;;;1.30;99.90;;;;;;5045290;28;20196;-76
2023/01/20 05:08:10;;;;;;;20.45;13.80;;;1.20;99.90;;;;;;5045660;28;20232;-76
2023/01/20 05:10:56;;;;;;;20.83;15.45;;;1.30;99.90;;;;;;5048037;28;20228;-76
2023/01/20 05:13:41;;;;;;;20.25;15.18;;;1.20;99.90;;;;;;5055703;28;20220;-77
2023/01/20 05:16:30;;;;;;;18.90;15.32;;;1.30;99.90;;;;;;5053992;28;20582;-77
2023/01/20 05:19:16;;;;;;;19.42;14.93;;;1.30;99.90;;;;;;5052271;28;20674;-76
2023/01/20 05:22:03;;;;;;;19.95;14.52;;;1.20;99.90;;;;;;5054795;28;20208;-77
2023/01/20 05:24:48;;;;;;;21.20;15.80;;;1.20;99.90;;;;;;5049627;28;20208;-75
2023/01/20 05:27:34;;;;;;;18.85;14.95;;;1.20;99.90;;;;;;5043550;28;20232;-77
2023/01/20 05:30:20;;;;;;;17.42;14.48;;;1.20;99.90;;;;;;5047410;28;20262;-76
2023/01/20 05:33:05;;;;;;;18.13;14.50;;;1.30;99.90;;;;;;5053157;28;20233;-76
2023/01/20 05:35:51;;;;;;;20.58;15.05;;;1.40;99.90;;;;;;5046080;28;20339;-76
2023/01/20 05:38:38;;;;;;;22.30;15.55;;;1.40;99.90;;;;;;5048836;28;20740;-76
2023/01/20 05:41:24;;;;;;;18.38;14.20;;;1.50;99.90;;;;;;5047634;28;20252;-77
2023/01/20 05:44:10;;;;;;;19.40;15.13;;;1.50;99.90;;;;;;5042543;28;20210;-76
2023/01/20 05:46:55;;;;;;;19.40;14.30;;;1.20;99.90;;;;;;5044181;28;20344;-76
2023/01/20 05:49:41;;;;;;;23.55;15.23;;;1.20;99.90;;;;;;5049626;28;20251;-77
2023/01/20 05:52:27;;;;;;;18.77;14.80;;;1.10;99.90;;;;;;5047981;28;20205;-77
2023/01/20 05:55:14;;;;;;;21.42;15.20;;;1.00;99.90;;;;;;5052392;28;20315;-76
2023/01/20 05:58:01;;;;;;;19.13;16.30;;;1.10;99.90;;;;;;5057218;22;20255;-73
2023/01/20 06:00:47;;;;;;;19.80;14.93;;;1.10;99.90;;;;;;5051965;28;20596;-73
2023/01/20 06:03:33;;;;;;;20.00;14.80;;;1.10;99.90;;;;;;5059952;28;20205;-74
2023/01/20 06:06:18;;;;;;;18.25;14.02;;;1.10;99.90;;;;;;5045239;28;20200;-74
2023/01/20 06:09:05;;;;;;;18.40;13.65;;;1.20;99.90;;;;;;5046173;28;20225;-72
2023/01/20 06:11:52;;;;;;;19.08;15.23;;;1.20;99.90;;;;;;5056068;28;20208;-74
2023/01/20 06:14:38;;;;;;;21.08;15.50;;;1.20;99.90;;;;;;5047868;28;20275;-73
2023/01/20 06:17:23;;;;;;;17.67;14.60;;;1.20;99.90;;;;;;5048304;28;20220;-74
2023/01/20 06:20:10;;;;;;;18.75;14.90;;;1.20;99.90;;;;;;5053836;28;20220;-74
2023/01/20 06:22:56;;;;;;;20.27;15.20;;;1.10;99.90;;;;;;5048271;28;20208;-73
2023/01/20 06:25:42;;;;;;;20.33;15.80;;;1.10;99.90;;;;;;5048427;28;20204;-74
2023/01/20 06:28:31;;;;;;;23.73;16.60;;;1.10;99.90;;;;;;5047326;28;20263;-72
2023/01/20 06:31:17;;;;;;;26.00;18.00;;;1.00;99.90;;;;;;5047307;28;20220;-74
2023/01/20 06:34:03;;;;;;;23.83;16.83;;;0.90;99.90;;;;;;5055153;28;20221;-73
2023/01/20 06:36:48;;;;;;;24.45;16.60;;;0.90;99.90;;;;;;5044529;28;20213;-74
2023/01/20 06:39:34;;;;;;;26.13;15.77;;;0.80;99.90;;;;;;5047048;28;20237;-74
2023/01/20 06:42:20;;;;;;;19.13;15.65;;;0.80;99.90;;;;;;5055207;28;20204;-75
2023/01/20 06:45:08;;;;;;;31.58;18.60;;;0.80;99.90;;;;;;5047015;28;20256;-71
2023/01/20 06:47:53;;;;;;;38.38;18.25;;;0.90;99.90;;;;;;5053078;28;20223;-74
2023/01/20 06:50:39;;;;;;;27.95;18.50;;;0.90;99.90;;;;;;5063490;28;20196;-74
2023/01/20 06:53:25;;;;;;;37.63;18.48;;;0.80;99.90;;;;;;5060694;28;20215;-73
2023/01/20 06:56:11;;;;;;;27.30;18.17;;;0.80;99.90;;;;;;5052620;28;20201;-75
2023/01/20 06:58:57;;;;;;;22.30;16.73;;;0.50;99.90;;;;;;5056146;28;20232;-75
2023/01/20 07:01:44;;;;;;;39.28;19.08;;;0.60;99.90;;;;;;5060210;28;20660;-75
2023/01/20 07:04:29;;;;;;;38.78;21.35;;;0.60;99.90;;;;;;5055844;28;20583;-74
2023/01/20 07:07:15;;;;;;;29.73;19.30;;;0.60;99.90;;;;;;5038340;28;20742;-75
2023/01/20 07:10:02;;;;;;;38.75;22.50;;;0.60;99.90;;;;;;5063320;28;20208;-74
2023/01/20 07:12:48;;;;;;;31.38;21.65;;;0.70;99.90;;;;;;5063109;28;20212;-72
2023/01/20 07:15:34;;;;;;;67.13;20.65;;;0.80;99.90;;;;;;5052089;28;20224;-72
2023/01/20 07:18:21;;;;;;;26.25;19.90;;;0.90;99.90;;;;;;5058156;28;20228;-75
2023/01/20 07:21:06;;;;;;;26.65;19.35;;;0.80;99.90;;;;;;5052263;28;20208;-74
2023/01/20 07:23:52;;;;;;;31.25;20.02;;;0.70;99.90;;;;;;5057100;28;20200;-73
2023/01/20 07:26:38;;;;;;;25.95;19.58;;;0.70;99.90;;;;;;5050063;28;20303;-75
2023/01/20 07:29:23;;;;;;;27.30;22.38;;;0.70;99.90;;;;;;5046962;28;20224;-75
2023/01/20 07:32:09;;;;;;;30.00;22.38;;;0.70;99.90;;;;;;5057673;28;20204;-75
2023/01/20 07:34:56;;;;;;;26.48;20.65;;;0.80;99.90;;;;;;5066361;28;20220;-74
2023/01/20 07:37:42;;;;;;;24.02;19.35;;;0.80;99.90;;;;;;5047621;28;20204;-75
2023/01/20 07:40:27;;;;;;;25.55;18.92;;;0.80;99.90;;;;;;5061587;28;20226;-75
2023/01/20 07:43:13;;;;;;;23.90;17.58;;;0.70;99.90;;;;;;5055439;28;20584;-75
2023/01/20 07:46:01;;;;;;;20.63;16.17;;;0.70;99.90;;;;;;5054214;28;20610;-75
2023/01/20 07:48:47;;;;;;;21.20;17.25;;;0.70;99.90;;;;;;5064994;28;20220;-75
2023/01/20 07:51:33;;;;;;;22.48;17.40;;;0.70;99.90;;;;;;5055164;28;20276;-75
2023/01/20 07:54:19;;;;;;;20.60;16.63;;;0.80;99.90;;;;;;5059610;28;20233;-74
2023/01/20 07:57:05;;;;;;;21.63;17.08;;;0.90;99.90;;;;;;5054781;28;20255;-75
2023/01/20 07:59:50;;;;;;;24.02;16.38;;;1.00;99.90;;;;;;5055151;28;20290;-74
2023/01/20 08:02:38;;;;;;;22.10;15.95;;;1.00;99.90;;;;;;5052577;28;20204;-75
2023/01/20 08:05:23;;;;;;;22.83;16.85;;;1.00;99.90;;;;;;5057335;28;20913;-73
2023/01/20 08:08:10;;;;;;;29.35;18.83;;;1.00;99.90;;;;;;5056859;28;20618;-74
2023/01/20 08:10:57;;;;;;;33.78;21.25;;;1.10;99.90;;;;;;5054696;28;20204;-74
2023/01/20 08:13:42;;;;;;;39.15;20.63;;;1.10;99.90;;;;;;5054748;28;20207;-74
2023/01/20 08:16:28;;;;;;;31.55;21.10;;;1.00;99.90;;;;;;5050879;28;20340;-75
2023/01/20 08:19:14;;;;;;;31.15;22.25;;;1.00;99.90;;;;;;5061254;28;20224;-74
2023/01/20 08:21:59;;;;;;;33.90;20.75;;;1.10;99.90;;;;;;5060972;28;20516;-74
2023/01/20 08:24:47;;;;;;;37.45;23.73;;;1.10;99.90;;;;;;5052523;28;20893;-74
2023/01/20 08:27:32;;;;;;;28.10;20.33;;;1.10;99.90;;;;;;5051045;28;20209;-74
2023/01/20 08:30:18;;;;;;;33.22;22.38;;;1.10;99.90;;;;;;5060025;28;20200;-73
2023/01/20 08:33:04;;;;;;;38.35;24.55;;;1.10;99.90;;;;;;5054901;28;20729;-74
2023/01/20 08:35:50;;;;;;;39.75;22.85;;;1.10;99.90;;;;;;5050389;28;20567;-75
2023/01/20 08:38:36;;;;;;;33.45;23.38;;;1.10;99.90;;;;;;5056093;28;20227;-75
2023/01/20 08:41:26;;;;;;;58.55;26.33;;;1.10;99.90;;;;;;5053173;28;20275;-75
2023/01/20 08:44:12;;;;;;;43.75;23.73;;;1.10;99.90;;;;;;5045691;28;20197;-74
2023/01/20 08:46:58;;;;;;;49.13;24.10;;;1.10;99.90;;;;;;5047695;28;20204;-75
2023/01/20 08:49:43;;;;;;;80.47;24.77;;;1.00;99.90;;;;;;5061480;28;20670;-75
2023/01/20 08:52:29;;;;;;;44.33;24.52;;;1.00;99.90;;;;;;5049422;28;20211;-73
2023/01/20 08:55:14;;;;;;;41.25;24.48;;;1.10;99.90;;;;;;5041216;28;20279;-75
2023/01/20 08:58:02;;;;;;;44.95;27.23;;;1.10;99.90;;;;;;5057234;28;20382;-75
2023/01/20 09:00:48;;;;;;;43.00;24.85;;;1.10;99.90;;;;;;5053482;28;20216;-74
2023/01/20 09:03:34;;;;;;;71.28;25.05;;;1.20;99.90;;;;;;5064412;28;20562;-74
2023/01/20 09:06:20;;;;;;;70.95;25.67;;;1.20;99.90;;;;;;5061880;28;20633;-74
2023/01/20 09:09:06;;;;;;;44.58;23.63;;;1.30;99.90;;;;;;5066969;28;20235;-74
2023/01/20 09:11:51;;;;;;;40.58;22.10;;;1.30;99.90;;;;;;5063414;28;20226;-74
2023/01/20 09:14:39;;;;;;;39.40;23.02;;;1.30;99.90;;;;;;5053993;28;20232;-73
2023/01/20 09:17:24;;;;;;;41.70;23.10;;;1.30;99.90;;;;;;5061731;28;20675;-75
2023/01/20 09:20:11;;;;;;;29.10;20.85;;;1.30;99.90;;;;;;5064959;28;20204;-74
2023/01/20 09:23:01;;;;;;;30.50;22.27;;;1.40;99.90;;;;;;5064606;28;20590;-74
2023/01/20 09:25:47;;;;;;;29.40;20.95;;;1.50;99.90;;;;;;5053333;28;20701;-75
2023/01/20 09:28:33;;;;;;;28.20;20.25;;;1.50;99.90;;;;;;5058556;28;20320;-75
2023/01/20 09:31:20;;;;;;;28.45;21.73;;;1.40;99.90;;;;;;5064474;28;20207;-75
2023/01/20 09:34:06;;;;;;;31.00;21.25;;;1.60;99.90;;;;;;5040675;28;23112;-73
2023/01/20 09:36:53;;;;;;;28.13;21.45;;;1.80;99.90;;;;;;5065415;28;20204;-75
2023/01/20 09:46:07;;;;;;;27.35;21.83;;;1.90;99.90;;;;;;5048602;28;20727;-74
2023/01/20 09:55:24;;;;;;;32.67;23.30;;;2.10;99.90;;;;;;5056431;28;20266;-74
2023/01/20 09:58:16;;;;;;;34.83;23.65;;;2.20;99.90;;;;;;5060393;28;20227;-74
2023/01/20 10:01:10;;;;;;;35.08;23.40;;;2.30;99.90;;;;;;5065434;28;20204;-74
2023/01/20 10:04:03;;;;;;;40.58;23.42;;;2.30;99.90;;;;;;5041620;28;20267;-74
2023/01/20 10:06:51;;;;;;;36.30;24.73;;;2.30;99.90;;;;;;5062396;28;20207;-74
2023/01/20 10:09:42;;;;;;;33.13;22.50;;;2.50;99.90;;;;;;5059857;28;20510;-74
2023/01/20 10:12:32;;;;;;;34.35;22.95;;;2.40;99.90;;;;;;5056024;28;20351;-74
2023/01/20 10:15:22;;;;;;;72.90;43.05;;;2.40;99.90;;;;;;5048564;28;20741;-73
2023/01/20 10:18:14;;;;;;;41.25;27.45;;;2.50;99.90;;;;;;5068528;28;20331;-74
2023/01/20 10:21:08;;;;;;;37.28;24.85;;;2.50;99.90;;;;;;5048836;28;20260;-75
2023/01/20 10:23:57;;;;;;;34.03;24.40;;;2.60;99.90;;;;;;5056936;28;20204;-74
2023/01/20 10:26:50;;;;;;;34.58;23.77;;;2.70;99.90;;;;;;5056676;28;20201;-75
2023/01/20 10:29:41;;;;;;;29.92;23.02;;;2.70;99.90;;;;;;5063761;28;20225;-74
2023/01/20 10:32:32;;;;;;;30.27;23.52;;;2.80;99.90;;;;;;5059482;28;20207;-75
2023/01/20 10:35:21;;;;;;;28.52;21.65;;;2.90;99.90;;;;;;5053113;28;20545;-75
2023/01/20 10:38:18;;;;;;;33.95;24.92;;;2.90;99.90;;;;;;5059648;28;20299;-75
2023/01/20 10:41:11;;;;;;;27.77;21.45;;;3.00;99.90;;;;;;5050259;28;20209;-76
2023/01/20 10:43:58;;;;;;;30.95;23.27;;;3.10;99.90;;;;;;5038959;28;20204;-72
2023/01/20 10:46:56;;;;;;;31.15;23.10;;;3.10;99.90;;;;;;5047610;28;20193;-75
2023/01/20 10:50:22;;;;;;;29.30;22.95;;;3.20;99.90;;;;;;5052139;28;20335;-75
2023/01/20 10:53:21;;;;;;;33.58;25.08;;;3.20;99.90;;;;;;5040971;28;20279;-75
2023/01/20 10:56:34;;;;;;;31.58;25.45;;;3.30;99.90;;;;;;5063363;28;20278;-75
2023/01/20 10:59:28;;;;;;;35.22;24.45;;;3.40;99.90;;;;;;5061077;28;20271;-75
2023/01/20 11:02:17;;;;;;;33.60;23.55;;;3.50;99.90;;;;;;5054535;28;20208;-74
2023/01/20 11:05:09;;;;;;;32.90;25.70;;;3.50;99.90;;;;;;5054704;28;20248;-75
2023/01/20 11:07:57;;;;;;;31.88;24.33;;;3.50;99.90;;;;;;5057877;28;20223;-74
2023/01/20 11:10:44;;;;;;;28.70;23.27;;;3.60;99.90;;;;;;5056150;28;20698;-75
2023/01/20 11:13:30;;;;;;;30.25;21.55;;;3.70;99.90;;;;;;5051048;28;20672;-75
2023/01/20 11:16:21;;;;;;;30.05;23.02;;;3.80;99.90;;;;;;5065976;28;20244;-75
2023/01/20 11:19:07;;;;;;;30.95;24.13;;;3.90;99.90;;;;;;5063760;28;20239;-75
2023/01/20 11:21:53;;;;;;;33.33;24.00;;;3.90;99.90;;;;;;5059498;28;20204;-74
2023/01/20 11:24:42;;;;;;;29.67;22.88;;;3.90;99.90;;;;;;5054233;28;20682;-75
2023/01/20 11:27:34;;;;;;;31.08;22.23;;;3.90;99.90;;;;;;5057995;28;20595;-75
2023/01/20 11:30:26;;;;;;;33.58;23.30;;;3.90;99.90;;;;;;5058170;28;20231;-75
2023/01/20 11:33:23;;;;;;;31.50;23.80;;;3.80;99.90;;;;;;5036695;28;20225;-74
2023/01/20 11:36:18;;;;;;;29.52;23.42;;;3.90;99.90;;;;;;5044984;28;20220;-74
2023/01/20 11:39:23;;;;;;;32.80;23.17;;;3.80;99.90;;;;;;5038714;28;20347;-75
2023/01/20 11:42:15;;;;;;;35.63;24.52;;;3.90;99.90;;;;;;5043229;28;20288;-75
2023/01/20 11:45:04;;;;;;;31.52;24.55;;;3.80;99.90;;;;;;5042597;28;20663;-72
2023/01/20 11:48:00;;;;;;;33.50;23.55;;;3.90;99.90;;;;;;5039106;28;20277;-75
2023/01/20 11:50:49;;;;;;;35.08;24.85;;;3.90;99.90;;;;;;5051161;28;20208;-76
2023/01/20 11:53:35;;;;;;;33.05;23.85;;;3.90;99.90;;;;;;5040306;28;20201;-75
2023/01/20 11:56:25;;;;;;;43.83;28.45;;;3.90;99.90;;;;;;5042872;28;20282;-75
2023/01/20 11:59:20;;;;;;;40.67;26.25;;;3.90;99.90;;;;;;5062428;22;20372;-72
2023/01/20 12:02:23;;;;;;;51.33;27.77;;;3.90;99.90;;;;;;5049204;28;20437;-72
2023/01/20 12:05:14;;;;;;;52.65;29.92;;;4.00;99.90;;;;;;5047049;28;20263;-72
2023/01/20 12:08:03;;;;;;;55.17;30.98;;;4.10;99.90;;;;;;5056175;28;20205;-72
2023/01/20 12:10:50;;;;;;;41.58;25.10;;;4.20;99.90;;;;;;5044357;28;20262;-72
2023/01/20 12:16:41;;;;;;;31.42;21.77;;;4.40;99.90;;;;;;5058024;28;20242;-71
2023/01/20 12:19:37;;;;;;;34.25;22.77;;;4.50;99.90;;;;;;5056449;28;20224;-71
2023/01/20 12:22:27;;;;;;;30.33;21.88;;;4.50;99.90;;;;;;5050178;28;20197;-71
2023/01/20 12:25:20;;;;;;;31.00;21.10;;;4.60;99.90;;;;;;5051531;28;20217;-72
2023/01/20 12:28:14;;;;;;;27.17;18.77;;;4.60;99.90;;;;;;5054754;28;20201;-72
2023/01/20 12:31:00;;;;;;;23.30;17.08;;;4.60;99.90;;;;;;5041205;28;20202;-72
2023/01/20 12:33:49;;;;;;;21.85;16.42;;;4.70;99.90;;;;;;5049491;28;20608;-72
2023/01/20 12:37:01;;;;;;;20.60;16.02;;;4.70;99.90;;;;;;5059979;28;20205;-71
2023/01/20 12:40:03;;;;;;;21.08;15.35;;;4.80;99.90;;;;;;5047289;28;20227;-71
2023/01/20 12:43:20;;;;;;;20.77;15.48;;;4.90;99.90;;;;;;5057531;28;20204;-71
2023/01/20 12:46:31;;;;;;;22.20;16.15;;;5.20;99.90;;;;;;5050118;28;20561;-71
2023/01/20 12:49:48;;;;;;;19.33;13.75;;;5.40;99.90;;;;;;5046030;28;20224;-72
2023/01/20 12:52:53;;;;;;;15.23;11.02;;;5.50;99.90;;;;;;5045917;28;20808;-71
2023/01/20 12:55:54;;;;;;;14.52;11.32;;;5.50;99.90;;;;;;5053916;28;20221;-72
2023/01/20 12:58:55;;;;;;;17.92;9.63;;;5.50;99.90;;;;;;5066636;28;20228;-71
2023/01/20 13:01:49;;;;;;;16.95;7.88;;;5.40;99.90;;;;;;5055999;28;20204;-73
2023/01/20 13:05:06;;;;;;;14.48;7.75;;;5.20;99.90;;;;;;5052360;28;20206;-71
2023/01/20 13:08:01;;;;;;;14.32;8.80;;;4.90;99.90;;;;;;5059362;28;20216;-71
2023/01/20 13:10:56;;;;;;;13.30;9.27;;;4.90;99.90;;;;;;5058929;28;20210;-71
2023/01/20 13:13:50;;;;;;;12.45;8.95;;;4.70;99.90;;;;;;5061873;28;20197;-72
2023/01/20 13:16:44;;;;;;;11.63;8.43;;;4.60;99.90;;;;;;5050756;28;20209;-72
2023/01/20 13:19:34;;;;;;;12.63;9.38;;;4.60;99.90;;;;;;5059723;28;20224;-72
2023/01/20 13:22:21;;;;;;;15.07;9.13;;;4.90;99.90;;;;;;5055482;28;20208;-72
2023/01/20 13:25:17;;;;;;;15.68;8.80;;;5.50;99.90;;;;;;5053681;28;20208;-71
2023/01/20 13:28:03;;;;;;;15.38;9.55;;;5.90;99.90;;;;;;5054393;28;20243;-71
2023/01/20 13:30:52;;;;;;;14.32;10.00;;;6.00;99.90;;;;;;5055150;28;20264;-72
2023/01/20 13:33:40;;;;;;;18.08;9.20;;;5.90;99.90;;;;;;5045003;28;20224;-72
2023/01/20 13:36:26;;;;;;;14.00;9.77;;;5.70;99.90;;;;;;5052259;28;20285;-72
2023/01/20 13:39:39;;;;;;;13.85;9.50;;;5.60;99.90;;;;;;5048702;28;20303;-72
2023/01/20 13:42:45;;;;;;;14.30;8.52;;;5.30;99.90;;;;;;5058083;28;20200;-72
2023/01/20 13:45:31;;;;;;;16.95;10.10;;;5.20;99.90;;;;;;5041894;28;20567;-71
2023/01/20 13:48:23;;;;;;;11.40;9.20;;;5.00;99.90;;;;;;5052156;28;20587;-71
2023/01/20 13:51:43;;;;;;;11.50;9.45;;;5.00;99.90;;;;;;5048061;28;20711;-72
2023/01/20 13:54:47;;;;;;;12.70;9.65;;;4.90;99.90;;;;;;5042371;28;20295;-72
2023/01/20 13:57:37;;;;;;;14.25;10.00;;;4.90;99.90;;;;;;5053826;28;20222;-73
2023/01/20 14:00:23;;;;;;;14.68;10.23;;;4.90;99.90;;;;;;5053702;28;20201;-73
2023/01/20 14:03:20;;;;;;;14.52;10.93;;;4.90;99.90;;;;;;5053165;28;20207;-73
2023/01/20 14:06:18;;;;;;;17.00;9.63;;;4.80;99.90;;;;;;5055317;28;20327;-73
2023/01/20 14:09:10;;;;;;;20.73;11.02;;;4.80;99.90;;;;;;5060384;28;20244;-73
2023/01/20 14:11:57;;;;;;;13.55;9.90;;;4.70;99.90;;;;;;5055483;28;20204;-73
2023/01/20 14:14:46;;;;;;;14.20;10.20;;;4.60;99.90;;;;;;5053944;28;20193;-73
2023/01/20 14:17:32;;;;;;;15.25;9.57;;;4.50;99.90;;;;;;5050585;28;20575;-73
2023/01/20 14:20:22;;;;;;;12.32;10.10;;;4.40;99.90;;;;;;5050589;28;20325;-73
2023/01/20 14:23:37;;;;;;;14.00;9.52;;;4.30;99.90;;;;;;5051597;28;20315;-73
2023/01/20 14:26:24;;;;;;;16.23;9.85;;;4.20;99.90;;;;;;5058445;28;20193;-73
2023/01/20 14:29:20;;;;;;;12.27;10.05;;;4.30;99.90;;;;;;5049634;28;20347;-73
2023/01/20 14:32:17;;;;;;;16.92;10.73;;;4.20;99.90;;;;;;5053554;28;20200;-73
2023/01/20 14:35:13;;;;;;;13.52;9.38;;;4.20;99.90;;;;;;5055993;28;20205;-73
2023/01/20 14:37:59;;;;;;;15.07;10.27;;;4.30;99.90;;;;;;5053131;28;20197;-73
2023/01/20 14:40:48;;;;;;;17.67;11.25;;;4.30;99.90;;;;;;5053746;28;20203;-73
2023/01/20 14:43:34;;;;;;;16.45;13.30;;;4.30;99.90;;;;;;5063804;28;20207;-73
2023/01/20 14:46:20;;;;;;;16.40;11.35;;;4.40;99.90;;;;;;5051447;28;20254;-73
2023/01/20 14:49:07;;;;;;;17.17;11.68;;;4.40;99.90;;;;;;5063322;28;20724;-73